Costa Fortuna — IBNY — position and weather

sailwx.info

Track history (hours):
 
Tides and Currents Weather Stations Pressure Air Temp Water Temp Dewpoint Dewpoint Depression Visibility Wind Speed Wind Dir Waves Ship Positions

Costa Fortuna

Last reported at 2017-Apr-30 09:48 UTC. Time now 2017-Apr-30 14:47 UTC.
Position N 37°07' E 123°25'.

Length 272 m; draft 8.3 m.

Type: Ship. MMSI: 247094800.

Date/timePositionNaut miles runAvg speedWind from/ knotsBaromVisibWave heightAir tempDewpointWater temp
2017-Apr-30 09:48N 37°07' E 123°25'514.4
2017-Apr-30 09:26N 37°12' E 123°22'914.7
2017-Apr-30 08:51N 37°20' E 123°17'515.1
2017-Apr-30 08:30N 37°24' E 123°14'815.1
2017-Apr-30 08:00N 37°31' E 123°08'815.4
2017-Apr-30 07:30N 37°35' E 123°00'815.4
2017-Apr-30 07:00N 37°38' E 122°52'815.4
2017-Apr-30 06:30N 37°42' E 122°43'815.1
2017-Apr-30 06:00N 37°45' E 122°34'714.8
2017-Apr-30 05:30N 37°48' E 122°26'714.4
2017-Apr-30 05:00N 37°52' E 122°19'714.0
2017-Apr-30 04:31N 37°55' E 122°10'713.7
2017-Apr-30 04:00N 37°56' E 122°02'612.2
2017-Apr-30 03:30N 38°00' E 121°56'611.8
2017-Apr-30 03:00N 38°04' E 121°51'611.6
2017-Apr-30 02:30N 38°08' E 121°44'611.9
2017-Apr-30 02:01N 38°11' E 121°38'612.1
2017-Apr-30 01:31N 38°15' E 121°32'612.1
2017-Apr-30 01:01N 38°18' E 121°26'612.3
2017-Apr-30 00:30N 38°22' E 121°20'612.8
2017-Apr-30 00:01N 38°25' E 121°13'713.1
2017-Apr-29 23:30N 38°29' E 121°06'713.0
2017-Apr-29 23:00N 38°32' E 120°58'711.9
2017-Apr-29 22:27N 38°34' E 120°50'510.9
2017-Apr-29 21:59N 38°35' E 120°44'714.3
2017-Apr-29 21:30N 38°36' E 120°35'2514.2
2017-Apr-29 19:46N 38°38' E 120°04'713.9
2017-Apr-29 19:17N 38°39' E 119°55'1913.5
2017-Apr-29 17:50N 38°42' E 119°31'11 0.5
2017-Apr-28 20:10N 38°48' E 119°19'1417.8
2017-Apr-28 19:23N 38°46' E 119°37'718.0
2017-Apr-28 19:00N 38°46' E 119°45'918.1
2017-Apr-28 18:30N 38°44' E 119°57'5615.3
2017-Apr-28 14:53N 38°32' E 121°06'1517.0
2017-Apr-28 14:00N 38°24' E 121°22'  
2017-Apr-25 08:26N 37°17' E 123°18'512.1
2017-Apr-25 08:00N 37°22' E 123°16'612.3
2017-Apr-25 07:30N 37°27' E 123°12'612.4
2017-Apr-25 07:00N 37°32' E 123°07'612.6
2017-Apr-25 06:30N 37°34' E 122°59'713.3
2017-Apr-25 05:59N 37°37' E 122°51'2113.9
2017-Apr-25 04:29N 37°49' E 122°29'813.8
2017-Apr-25 03:53N 37°53' E 122°21'513.5
2017-Apr-25 03:30N 37°56' E 122°15'713.4
2017-Apr-25 03:00N 37°59' E 122°08'713.1
2017-Apr-25 02:30N 38°03' E 122°01'712.8
2017-Apr-25 02:00N 38°07' E 121°55'812.6
2017-Apr-25 01:23N 38°10' E 121°45'512.4
2017-Apr-25 00:59N 38°11' E 121°40'712.8
2017-Apr-25 00:25N 38°15' E 121°32'612.8
2017-Apr-24 23:56N 38°18' E 121°25'613.1
2017-Apr-24 23:30N 38°22' E 121°19'713.5
2017-Apr-24 23:00N 38°25' E 121°11'814.1
2017-Apr-24 22:25N 38°29' E 121°02'1013.8
2017-Apr-24 21:42N 38°33' E 120°51'312.2
2017-Apr-24 21:28N 38°34' E 120°47'713.3
2017-Apr-24 20:58N 38°34' E 120°39'714.0
2017-Apr-24 20:26N 38°35' E 120°29'613.8
2017-Apr-24 19:59N 38°35' E 120°21'813.8
2017-Apr-24 19:23N 38°37' E 120°11'613.7
2017-Apr-24 18:55N 38°39' E 120°03'713.4
2017-Apr-24 18:26N 38°40' E 119°55'713.2
2017-Apr-24 17:52N 38°42' E 119°46'512.9
2017-Apr-24 17:30N 38°42' E 119°40'612.8
2017-Apr-24 17:00N 38°42' E 119°31'612.6
2017-Apr-24 16:30N 38°43' E 119°23'612.5
2017-Apr-24 16:00N 38°44' E 119°16'612.3
2017-Apr-24 15:30N 38°45' E 119°08'612.1
2017-Apr-24 15:00N 38°46' E 119°00'611.9
2017-Apr-24 14:30N 38°47' E 118°53'1212.0
2017-Apr-24 13:30N 38°48' E 118°37'612.2
2017-Apr-24 13:00N 38°49' E 118°29'612.4
2017-Apr-24 12:30N 38°50' E 118°22'612.4
2017-Apr-24 12:00N 38°51' E 118°14'612.1
2017-Apr-24 11:29N 38°54' E 118°07'510.4
2017-Apr-24 10:59N 38°56' E 118°01'714.0
2017-Apr-24 10:30N 38°57' E 117°52'123 7.0
2017-Apr-23 17:02N 38°38' E 120°28'3413.4
2017-Apr-23 14:30N 38°30' E 121°11'1919.0
2017-Apr-23 13:29N 38°21' E 121°32'  
Track history (hours):
 
Tides and Currents Weather Stations Pressure Air Temp Water Temp Dewpoint Dewpoint Depression Visibility Wind Speed Wind Dir Waves Ship Positions

Costa Fortuna

Last reported at 2017-Apr-30 09:48 UTC. Time now 2017-Apr-30 14:47 UTC.
Position N 37°07' E 123°25'.

Length 272 m; draft 8.3 m.

Type: Ship. MMSI: 247094800.

Date/timePositionNaut miles runAvg speedWind from/ knotsBaromVisibWave heightAir tempDewpointWater temp
2017-Apr-30 09:48N 37°07' E 123°25'514.4
2017-Apr-30 09:26N 37°12' E 123°22'914.7
2017-Apr-30 08:51N 37°20' E 123°17'515.1
2017-Apr-30 08:30N 37°24' E 123°14'815.1
2017-Apr-30 08:00N 37°31' E 123°08'815.4
2017-Apr-30 07:30N 37°35' E 123°00'815.4
2017-Apr-30 07:00N 37°38' E 122°52'815.4
2017-Apr-30 06:30N 37°42' E 122°43'815.1
2017-Apr-30 06:00N 37°45' E 122°34'714.8
2017-Apr-30 05:30N 37°48' E 122°26'714.4
2017-Apr-30 05:00N 37°52' E 122°19'714.0
2017-Apr-30 04:31N 37°55' E 122°10'713.7
2017-Apr-30 04:00N 37°56' E 122°02'612.2
2017-Apr-30 03:30N 38°00' E 121°56'611.8
2017-Apr-30 03:00N 38°04' E 121°51'611.6
2017-Apr-30 02:30N 38°08' E 121°44'611.9
2017-Apr-30 02:01N 38°11' E 121°38'612.1
2017-Apr-30 01:31N 38°15' E 121°32'612.1
2017-Apr-30 01:01N 38°18' E 121°26'612.3
2017-Apr-30 00:30N 38°22' E 121°20'612.8
2017-Apr-30 00:01N 38°25' E 121°13'713.1
2017-Apr-29 23:30N 38°29' E 121°06'713.0
2017-Apr-29 23:00N 38°32' E 120°58'711.9
2017-Apr-29 22:27N 38°34' E 120°50'510.9
2017-Apr-29 21:59N 38°35' E 120°44'714.3
2017-Apr-29 21:30N 38°36' E 120°35'2514.2
2017-Apr-29 19:46N 38°38' E 120°04'713.9
2017-Apr-29 19:17N 38°39' E 119°55'1913.5
2017-Apr-29 17:50N 38°42' E 119°31'11 0.5
2017-Apr-28 20:10N 38°48' E 119°19'1417.8
2017-Apr-28 19:23N 38°46' E 119°37'718.0
2017-Apr-28 19:00N 38°46' E 119°45'918.1
2017-Apr-28 18:30N 38°44' E 119°57'5615.3
2017-Apr-28 14:53N 38°32' E 121°06'1517.0
2017-Apr-28 14:00N 38°24' E 121°22'  
2017-Apr-25 08:26N 37°17' E 123°18'512.1
2017-Apr-25 08:00N 37°22' E 123°16'612.3
2017-Apr-25 07:30N 37°27' E 123°12'612.4
2017-Apr-25 07:00N 37°32' E 123°07'612.6
2017-Apr-25 06:30N 37°34' E 122°59'713.3
2017-Apr-25 05:59N 37°37' E 122°51'2113.9
2017-Apr-25 04:29N 37°49' E 122°29'813.8
2017-Apr-25 03:53N 37°53' E 122°21'513.5
2017-Apr-25 03:30N 37°56' E 122°15'713.4
2017-Apr-25 03:00N 37°59' E 122°08'713.1
2017-Apr-25 02:30N 38°03' E 122°01'712.8
2017-Apr-25 02:00N 38°07' E 121°55'812.6
2017-Apr-25 01:23N 38°10' E 121°45'512.4
2017-Apr-25 00:59N 38°11' E 121°40'712.8
2017-Apr-25 00:25N 38°15' E 121°32'612.8
2017-Apr-24 23:56N 38°18' E 121°25'613.1
2017-Apr-24 23:30N 38°22' E 121°19'713.5
2017-Apr-24 23:00N 38°25' E 121°11'814.1
2017-Apr-24 22:25N 38°29' E 121°02'1013.8
2017-Apr-24 21:42N 38°33' E 120°51'312.2
2017-Apr-24 21:28N 38°34' E 120°47'713.3
2017-Apr-24 20:58N 38°34' E 120°39'714.0
2017-Apr-24 20:26N 38°35' E 120°29'613.8
2017-Apr-24 19:59N 38°35' E 120°21'813.8
2017-Apr-24 19:23N 38°37' E 120°11'613.7
2017-Apr-24 18:55N 38°39' E 120°03'713.4
2017-Apr-24 18:26N 38°40' E 119°55'713.2
2017-Apr-24 17:52N 38°42' E 119°46'512.9
2017-Apr-24 17:30N 38°42' E 119°40'612.8
2017-Apr-24 17:00N 38°42' E 119°31'612.6
2017-Apr-24 16:30N 38°43' E 119°23'612.5
2017-Apr-24 16:00N 38°44' E 119°16'612.3
2017-Apr-24 15:30N 38°45' E 119°08'612.1
2017-Apr-24 15:00N 38°46' E 119°00'611.9
2017-Apr-24 14:30N 38°47' E 118°53'1212.0
2017-Apr-24 13:30N 38°48' E 118°37'612.2
2017-Apr-24 13:00N 38°49' E 118°29'612.4
2017-Apr-24 12:30N 38°50' E 118°22'612.4
2017-Apr-24 12:00N 38°51' E 118°14'612.1
2017-Apr-24 11:29N 38°54' E 118°07'510.4
2017-Apr-24 10:59N 38°56' E 118°01'714.0
2017-Apr-24 10:30N 38°57' E 117°52'123 7.0
2017-Apr-23 17:02N 38°38' E 120°28'3413.4
2017-Apr-23 14:30N 38°30' E 121°11'1919.0
2017-Apr-23 13:29N 38°21' E 121°32'  

Dump ship's entire track history